Time;durP1;ratioP1;P1;durP2;ratioP2;P2;SDS_P1;SDS_P2;PMS_P1;PMS_P2;Temp;Humidity;BMP_temperature;BMP_pressure;BME280_temperature;BME280_humidity;BME280_pressure;Samples;Min_cycle;Max_cycle;Signal;HPM_P1;HPM_P2
2023/11/24 00:00:04;;;;;;;;;;;11.40;99.90;;;;;;5030146;28;19931;-81
2023/11/24 00:02:31;;;;;;;;;;;11.50;99.90;;;;;;5014264;28;19913;-80
2023/11/24 00:04:57;;;;;;;;;;;11.50;99.90;;;;;;5013743;28;19917;-81
2023/11/24 00:07:22;;;;;;;;;;;11.50;99.90;;;;;;5014656;28;19917;-81
2023/11/24 00:09:49;;;;;;;;;;;11.40;99.90;;;;;;5013447;28;19963;-81
2023/11/24 00:12:14;;;;;;;;;;;11.40;99.90;;;;;;5014677;28;20048;-81
2023/11/24 00:14:40;;;;;;;;;;;11.50;99.90;;;;;;5015019;28;19959;-80
2023/11/24 00:17:05;;;;;;;;;;;11.40;99.90;;;;;;5014534;28;20015;-81
2023/11/24 00:19:31;;;;;;;;;;;11.50;99.90;;;;;;5014703;28;19914;-81
2023/11/24 00:21:56;;;;;;;;;;;11.50;99.90;;;;;;5014302;28;19913;-81
2023/11/24 00:24:23;;;;;;;;;;;11.50;99.90;;;;;;5014445;28;19910;-81
2023/11/24 00:26:49;;;;;;;;;;;11.50;99.90;;;;;;5013207;28;19964;-81
2023/11/24 00:29:15;;;;;;;;;;;11.50;99.90;;;;;;5014160;28;19909;-81
2023/11/24 00:31:41;;;;;;;;;;;11.50;99.90;;;;;;5013992;28;19961;-81
2023/11/24 00:34:07;;;;;;;;;;;11.50;99.90;;;;;;5014042;28;19960;-75
2023/11/24 00:36:33;;;;;;;;;;;11.50;99.90;;;;;;5014044;28;20004;-75
2023/11/24 00:38:59;;;;;;;;;;;11.50;99.90;;;;;;5014325;28;20337;-81
2023/11/24 00:41:24;;;;;;;;;;;11.50;99.90;;;;;;5014164;28;19974;-81
2023/11/24 00:43:50;;;;;;;;;;;11.50;99.90;;;;;;5014213;28;19959;-81
2023/11/24 00:46:18;;;;;;;;;;;11.40;99.90;;;;;;5014055;28;19924;-81
2023/11/24 00:48:44;;;;;;;;;;;11.40;99.90;;;;;;5014135;28;19909;-81
2023/11/24 00:51:09;;;;;;;;;;;11.50;99.90;;;;;;5013572;28;19916;-81
2023/11/24 00:53:35;;;;;;;;;;;11.50;99.90;;;;;;5013934;28;20348;-80
2023/11/24 00:56:01;;;;;;;;;;;11.50;99.90;;;;;;5013866;28;19910;-81
2023/11/24 00:58:27;;;;;;;;;;;11.50;99.90;;;;;;5013997;28;19921;-81
2023/11/24 01:00:53;;;;;;;;;;;11.50;99.90;;;;;;5014277;28;19909;-81
2023/11/24 01:03:23;;;;;;;;;;;11.50;99.90;;;;;;5013003;28;19918;-81
2023/11/24 01:05:53;;;;;;;;;;;11.50;99.90;;;;;;5013937;28;19917;-75
2023/11/24 01:08:19;;;;;;;;;;;11.50;99.90;;;;;;5013553;28;20003;-75
2023/11/24 01:10:45;;;;;;;;;;;11.50;99.90;;;;;;5013540;28;19979;-81
2023/11/24 01:13:10;;;;;;;;;;;11.60;99.90;;;;;;4996881;28;19921;-75
2023/11/24 01:15:36;;;;;;;;;;;11.50;99.90;;;;;;4993434;28;19914;-81
2023/11/24 01:18:02;;;;;;;;;;;11.50;99.90;;;;;;4994433;28;20342;-75
2023/11/24 01:20:28;;;;;;;;;;;11.50;99.90;;;;;;4993863;28;19968;-81
2023/11/24 01:22:53;;;;;;;;;;;11.60;99.90;;;;;;4994006;28;19937;-75
2023/11/24 01:25:19;;;;;;;;;;;11.60;99.90;;;;;;4994263;28;19914;-81
2023/11/24 01:27:44;;;;;;;;;;;11.60;99.90;;;;;;4994211;28;19910;-81
2023/11/24 01:30:10;;;;;;;;;;;11.50;99.90;;;;;;4992676;28;20017;-75
2023/11/24 01:32:36;;;;;;;;;;;11.60;99.90;;;;;;4992514;28;19926;-81
2023/11/24 01:35:02;;;;;;;;;;;11.60;99.90;;;;;;5000151;28;19910;-81
2023/11/24 01:37:28;;;;;;;;;;;11.60;99.90;;;;;;5013626;28;19915;-81
2023/11/24 01:39:53;;;;;;;;;;;11.60;99.90;;;;;;5012914;28;19959;-75
2023/11/24 01:42:19;;;;;;;;;;;11.60;99.90;;;;;;5013571;28;19909;-81
2023/11/24 01:44:45;;;;;;;;;;;11.60;99.90;;;;;;5013302;28;20369;-81
2023/11/24 01:47:10;;;;;;;;;;;11.70;99.90;;;;;;5013276;28;20376;-75
2023/11/24 01:49:37;;;;;;;;;;;11.60;99.90;;;;;;5013365;28;19913;-81
2023/11/24 01:52:03;;;;;;;;;;;11.70;99.90;;;;;;5012452;28;19968;-75
2023/11/24 01:54:33;;;;;;;;;;;11.70;99.90;;;;;;5012740;28;19937;-81
2023/11/24 01:57:01;;;;;;;;;;;11.70;99.90;;;;;;4995839;28;19910;-81
2023/11/24 01:59:27;;;;;;;;;;;11.70;99.90;;;;;;4993673;28;19918;-81
2023/11/24 02:01:52;;;;;;;;;;;11.60;99.90;;;;;;4993731;28;20025;-81
2023/11/24 02:04:18;;;;;;;;;;;11.60;99.90;;;;;;5011317;28;20383;-81
2023/11/24 02:06:43;;;;;;;;;;;11.60;99.90;;;;;;5013317;28;19913;-81
2023/11/24 02:09:09;;;;;;;;;;;11.60;99.90;;;;;;5012869;28;19910;-81
2023/11/24 02:11:35;;;;;;;;;;;11.60;99.90;;;;;;5010744;28;19910;-81
2023/11/24 02:14:01;;;;;;;;;;;11.60;99.90;;;;;;4993552;28;20293;-81
2023/11/24 02:16:26;;;;;;;;;;;11.60;99.90;;;;;;4993812;28;19914;-81
2023/11/24 02:18:52;;;;;;;;;;;11.60;99.90;;;;;;4993710;28;19910;-75
2023/11/24 02:21:17;;;;;;;;;;;11.60;99.90;;;;;;4993229;28;19924;-81
2023/11/24 02:23:43;;;;;;;;;;;11.60;99.90;;;;;;4993457;28;19916;-81
2023/11/24 02:26:09;;;;;;;;;;;11.50;99.90;;;;;;4993563;28;20369;-75
2023/11/24 02:28:34;;;;;;;;;;;11.50;99.90;;;;;;4996563;28;19957;-81
2023/11/24 02:31:03;;;;;;;;;;;11.50;99.90;;;;;;4996573;28;19972;-81
2023/11/24 02:33:28;;;;;;;;;;;11.50;99.90;;;;;;4997045;28;19932;-75
2023/11/24 02:35:54;;;;;;;;;;;11.50;99.90;;;;;;5009953;28;19909;-81
2023/11/24 02:38:19;;;;;;;;;;;11.50;99.90;;;;;;5015030;28;19916;-81
2023/11/24 02:40:46;;;;;;;;;;;11.40;99.90;;;;;;5016406;28;19964;-75
2023/11/24 02:43:12;;;;;;;;;;;11.40;99.90;;;;;;5016310;28;19909;-81
2023/11/24 02:45:38;;;;;;;;;;;11.40;99.90;;;;;;5014707;28;19917;-81
2023/11/24 02:48:03;;;;;;;;;;;11.30;99.90;;;;;;5016346;28;19917;-81
2023/11/24 02:50:29;;;;;;;;;;;11.30;99.90;;;;;;5016003;28;19909;-81
2023/11/24 02:52:54;;;;;;;;;;;11.30;99.90;;;;;;5015976;28;20364;-76
2023/11/24 02:55:20;;;;;;;;;;;11.30;99.90;;;;;;5015953;28;19909;-81
2023/11/24 02:57:46;;;;;;;;;;;11.30;99.90;;;;;;5016060;28;19913;-81
2023/11/24 03:00:17;;;;;;;;;;;11.30;99.90;;;;;;5015915;28;19957;-81
2023/11/24 03:02:43;;;;;;;;;;;11.30;99.90;;;;;;5015183;28;20334;-75
2023/11/24 03:05:08;;;;;;;;;;;11.30;99.90;;;;;;5015529;28;19913;-75
2023/11/24 03:07:34;;;;;;;;;;;11.30;99.90;;;;;;5016119;28;19960;-81
2023/11/24 03:10:00;;;;;;;;;;;11.30;99.90;;;;;;4996468;28;19914;-75
2023/11/24 03:12:26;;;;;;;;;;;11.20;99.90;;;;;;5005223;28;20367;-81
2023/11/24 03:14:53;;;;;;;;;;;11.20;99.90;;;;;;5015778;28;19932;-75
2023/11/24 03:17:20;;;;;;;;;;;11.20;99.90;;;;;;5015617;28;19940;-81
2023/11/24 03:19:46;;;;;;;;;;;11.20;99.90;;;;;;5015576;28;19924;-81
2023/11/24 03:22:12;;;;;;;;;;;11.20;99.90;;;;;;5015386;28;19913;-81
2023/11/24 03:24:37;;;;;;;;;;;11.20;99.90;;;;;;5015352;28;19909;-81
2023/11/24 03:27:03;;;;;;;;;;;11.20;99.90;;;;;;5015487;28;19914;-75
2023/11/24 03:29:29;;;;;;;;;;;11.20;99.90;;;;;;5015596;28;20381;-81
2023/11/24 03:31:54;;;;;;;;;;;11.20;99.90;;;;;;5015129;28;20359;-81
2023/11/24 03:34:20;;;;;;;;;;;11.20;99.90;;;;;;5014815;28;19910;-81
2023/11/24 03:36:45;;;;;;;;;;;11.20;99.90;;;;;;5015312;28;19983;-81
2023/11/24 03:39:14;;;;;;;;;;;11.20;99.90;;;;;;5014878;28;19909;-81
2023/11/24 03:41:41;;;;;;;;;;;11.10;99.90;;;;;;5015096;28;20315;-81
2023/11/24 03:44:06;;;;;;;;;;;11.10;99.90;;;;;;5015275;28;19909;-81
2023/11/24 03:46:32;;;;;;;;;;;11.10;99.90;;;;;;5014901;28;19913;-81
2023/11/24 03:48:57;;;;;;;;;;;11.10;99.90;;;;;;5014956;28;20004;-75
2023/11/24 03:51:23;;;;;;;;;;;11.00;99.90;;;;;;5014725;28;19910;-75
2023/11/24 03:53:48;;;;;;;;;;;11.00;99.90;;;;;;5014851;28;20380;-81
2023/11/24 03:56:15;;;;;;;;;;;11.00;99.90;;;;;;5022145;28;19955;-82
2023/11/24 03:58:40;;;;;;;;;;;11.00;99.90;;;;;;5014012;28;20438;-81
2023/11/24 04:01:11;;;;;;;;;;;10.90;99.90;;;;;;5013438;28;19956;-81
2023/11/24 04:03:36;;;;;;;;;;;10.90;99.90;;;;;;5002639;28;20369;-81
2023/11/24 04:06:02;;;;;;;;;;;10.80;99.90;;;;;;4993472;28;19914;-81
2023/11/24 04:08:28;;;;;;;;;;;10.80;99.90;;;;;;4995088;28;19963;-81
2023/11/24 04:10:53;;;;;;;;;;;10.80;99.90;;;;;;4994851;28;19910;-81
2023/11/24 04:13:19;;;;;;;;;;;10.80;99.90;;;;;;5009852;28;20262;-81
2023/11/24 04:15:44;;;;;;;;;;;10.80;99.90;;;;;;5014693;28;20396;-81
2023/11/24 04:18:10;;;;;;;;;;;10.80;99.90;;;;;;5014425;28;19991;-81
2023/11/24 04:20:35;;;;;;;;;;;10.80;99.90;;;;;;5014330;28;19913;-81
2023/11/24 04:23:01;;;;;;;;;;;10.80;99.90;;;;;;5013146;28;19910;-81
2023/11/24 04:25:26;;;;;;;;;;;10.80;99.90;;;;;;5014374;28;20012;-81
2023/11/24 04:27:52;;;;;;;;;;;10.80;99.90;;;;;;5014535;28;19910;-75
2023/11/24 04:30:17;;;;;;;;;;;10.70;99.90;;;;;;5014478;28;19909;-75
2023/11/24 04:32:43;;;;;;;;;;;10.70;99.90;;;;;;5013851;28;19921;-81
2023/11/24 04:35:08;;;;;;;;;;;10.80;99.90;;;;;;5013943;28;20387;-75
2023/11/24 04:37:34;;;;;;;;;;;10.80;99.90;;;;;;5014005;28;20365;-81
2023/11/24 04:39:59;;;;;;;;;;;10.80;99.90;;;;;;5014171;28;19910;-75
2023/11/24 04:42:26;;;;;;;;;;;10.80;99.90;;;;;;5014154;28;19909;-81
2023/11/24 04:44:53;;;;;;;;;;;10.80;99.90;;;;;;5014179;28;19964;-81
2023/11/24 04:47:19;;;;;;;;;;;10.80;99.90;;;;;;5014035;28;19913;-81
2023/11/24 04:49:45;;;;;;;;;;;10.80;99.90;;;;;;5013334;28;20266;-80
2023/11/24 04:52:11;;;;;;;;;;;10.80;99.90;;;;;;5013830;28;20375;-81
2023/11/24 04:54:39;;;;;;;;;;;10.80;99.90;;;;;;5014157;28;19955;-81
2023/11/24 04:57:07;;;;;;;;;;;10.90;99.90;;;;;;5013844;28;19917;-81
2023/11/24 04:59:37;;;;;;;;;;;10.90;99.90;;;;;;5013792;28;19909;-81
2023/11/24 05:02:02;;;;;;;;;;;10.90;99.90;;;;;;5028937;28;19909;-81
2023/11/24 05:04:28;;;;;;;;;;;10.90;99.90;;;;;;5013432;28;19916;-81
2023/11/24 05:06:54;;;;;;;;;;;10.90;99.90;;;;;;5013679;28;20024;-81
2023/11/24 05:09:19;;;;;;;;;;;10.90;99.90;;;;;;5013773;28;19949;-81
2023/11/24 05:11:45;;;;;;;;;;;10.90;99.90;;;;;;5010279;28;19960;-81
2023/11/24 05:14:10;;;;;;;;;;;10.80;99.90;;;;;;4994157;28;19916;-75
2023/11/24 05:16:36;;;;;;;;;;;10.90;99.90;;;;;;4993840;28;19917;-81
2023/11/24 05:19:01;;;;;;;;;;;10.90;99.90;;;;;;4994255;28;19914;-81
2023/11/24 05:21:27;;;;;;;;;;;10.90;99.90;;;;;;4993779;28;19914;-81
2023/11/24 05:23:52;;;;;;;;;;;10.90;99.90;;;;;;4994042;28;20004;-82
2023/11/24 05:26:18;;;;;;;;;;;10.80;99.90;;;;;;4994240;28;19918;-82
2023/11/24 05:28:44;;;;;;;;;;;10.80;99.90;;;;;;4993074;28;19910;-81
2023/11/24 05:31:11;;;;;;;;;;;10.90;99.90;;;;;;4993713;28;19921;-81
2023/11/24 05:33:37;;;;;;;;;;;10.80;99.90;;;;;;4992510;28;19914;-75
2023/11/24 05:36:07;;;;;;;;;;;10.80;99.90;;;;;;5008111;28;19917;-75
2023/11/24 05:38:32;;;;;;;;;;;10.80;99.90;;;;;;5012077;28;19910;-81
2023/11/24 05:40:57;;;;;;;;;;;10.80;99.90;;;;;;5013337;28;19932;-75
2023/11/24 05:43:24;;;;;;;;;;;10.70;99.90;;;;;;5013445;28;20057;-81
2023/11/24 05:45:49;;;;;;;;;;;10.80;99.90;;;;;;5013085;28;19913;-81
2023/11/24 05:48:15;;;;;;;;;;;10.70;99.90;;;;;;5013368;28;19920;-82
2023/11/24 05:50:40;;;;;;;;;;;10.70;99.90;;;;;;5013547;28;19916;-81
2023/11/24 05:53:06;;;;;;;;;;;10.70;99.90;;;;;;5013131;28;20404;-81
2023/11/24 05:55:31;;;;;;;;;;;10.70;99.90;;;;;;5013574;28;19909;-81
2023/11/24 05:57:57;;;;;;;;;;;10.60;99.90;;;;;;5013167;28;19920;-81
2023/11/24 06:00:23;;;;;;;;;;;10.60;99.90;;;;;;5013243;28;19910;-81
2023/11/24 06:02:48;;;;;;;;;;;10.60;99.90;;;;;;5015813;28;19967;-81
2023/11/24 06:05:15;;;;;;;;;;;10.50;99.90;;;;;;5015582;28;20262;-81
2023/11/24 06:07:41;;;;;;;;;;;10.50;99.90;;;;;;5016758;28;19909;-80
2023/11/24 06:10:07;;;;;;;;;;;10.50;99.90;;;;;;5017007;28;19970;-81
2023/11/24 06:12:33;;;;;;;;;;;10.50;99.90;;;;;;5016899;28;19917;-75
2023/11/24 06:14:58;;;;;;;;;;;10.40;99.90;;;;;;5016894;28;20490;-81
2023/11/24 06:17:24;;;;;;;;;;;10.40;99.90;;;;;;5016687;28;19909;-81
2023/11/24 06:19:49;;;;;;;;;;;10.40;99.90;;;;;;5016840;28;20304;-81
2023/11/24 06:22:15;;;;;;;;;;;10.40;99.90;;;;;;5016517;28;19953;-81
2023/11/24 06:24:41;;;;;;;;;;;10.30;99.90;;;;;;5016704;28;19945;-81
2023/11/24 06:27:07;;;;;;;;;;;10.30;99.90;;;;;;5016820;28;19913;-75
2023/11/24 06:29:32;;;;;;;;;;;10.30;99.90;;;;;;5016497;28;19975;-75
2023/11/24 06:31:58;;;;;;;;;;;10.30;99.90;;;;;;5016403;28;19992;-81
2023/11/24 06:34:24;;;;;;;;;;;10.30;99.90;;;;;;5016083;28;19910;-81
2023/11/24 06:36:50;;;;;;;;;;;10.30;99.90;;;;;;5005840;28;20374;-81
2023/11/24 06:39:19;;;;;;;;;;;10.30;99.90;;;;;;4996525;28;19964;-75
2023/11/24 06:41:46;;;;;;;;;;;10.30;99.90;;;;;;5004971;28;20270;-76
2023/11/24 06:44:11;;;;;;;;;;;10.30;99.90;;;;;;5002167;28;19910;-81
2023/11/24 06:46:37;;;;;;;;;;;10.20;99.90;;;;;;5002234;28;19924;-81
2023/11/24 06:49:05;;;;;;;;;;;10.20;99.90;;;;;;5014419;28;19909;-81
2023/11/24 06:51:30;;;;;;;;;;;10.20;99.90;;;;;;5011674;28;19913;-75
2023/11/24 06:53:56;;;;;;;;;;;10.20;99.90;;;;;;5015212;28;20000;-81
2023/11/24 06:56:22;;;;;;;;;;;10.20;99.90;;;;;;5007871;28;20339;-81
2023/11/24 06:58:48;;;;;;;;;;;10.20;99.90;;;;;;5000585;28;19933;-81
2023/11/24 07:01:14;;;;;;;;;;;10.10;99.90;;;;;;5007092;28;20456;-81
2023/11/24 07:03:39;;;;;;;;;;;10.20;99.90;;;;;;4996475;28;20060;-75
2023/11/24 07:06:06;;;;;;;;;;;10.20;99.90;;;;;;5008694;28;19926;-75
2023/11/24 07:08:32;;;;;;;;;;;10.20;99.90;;;;;;4992915;28;19964;-75
2023/11/24 07:10:57;;;;;;;;;;;10.20;99.90;;;;;;5000804;28;19917;-81
2023/11/24 07:13:23;;;;;;;;;;;10.20;99.90;;;;;;4997447;28;19963;-81
2023/11/24 07:15:50;;;;;;;;;;;10.10;99.90;;;;;;5004128;28;19932;-75
2023/11/24 07:18:15;;;;;;;;;;;10.20;99.90;;;;;;4995601;28;20299;-75
2023/11/24 07:20:41;;;;;;;;;;;10.10;99.90;;;;;;5011150;28;19921;-75
2023/11/24 07:23:06;;;;;;;;;;;10.20;99.90;;;;;;5002127;28;20020;-75
2023/11/24 07:25:32;;;;;;;;;;;10.20;99.90;;;;;;5000724;28;20277;-75
2023/11/24 07:27:57;;;;;;;;;;;10.20;99.90;;;;;;4999735;28;19918;-81
2023/11/24 07:30:25;;;;;;;;;;;10.20;99.90;;;;;;5005971;28;19914;-81
2023/11/24 07:32:50;;;;;;;;;;;10.20;99.90;;;;;;5002447;28;19929;-81
2023/11/24 07:35:16;;;;;;;;;;;10.20;99.90;;;;;;4999337;28;19935;-75
2023/11/24 07:37:42;;;;;;;;;;;10.20;99.90;;;;;;4995862;28;20380;-81
2023/11/24 07:40:13;;;;;;;;;;;10.20;99.90;;;;;;5005560;28;19924;-81
2023/11/24 07:42:40;;;;;;;;;;;10.20;99.90;;;;;;5006487;28;19913;-76
2023/11/24 07:45:07;;;;;;;;;;;10.20;99.90;;;;;;4999493;28;19965;-81
2023/11/24 07:47:34;;;;;;;;;;;10.20;99.90;;;;;;5008923;28;19921;-75
2023/11/24 07:50:00;;;;;;;;;;;10.30;99.90;;;;;;5011596;28;19956;-81
2023/11/24 07:52:26;;;;;;;;;;;10.30;99.90;;;;;;5001904;28;19913;-81
2023/11/24 07:54:51;;;;;;;;;;;10.30;99.90;;;;;;4993979;28;19920;-77
2023/11/24 07:57:18;;;;;;;;;;;10.30;99.90;;;;;;5001711;28;19971;-75
2023/11/24 07:59:43;;;;;;;;;;;10.40;99.90;;;;;;4999253;28;20288;-75
2023/11/24 08:02:09;;;;;;;;;;;10.40;99.90;;;;;;5000698;28;19913;-81
2023/11/24 08:04:34;;;;;;;;;;;10.40;99.90;;;;;;4997452;28;20300;-81
2023/11/24 08:07:00;;;;;;;;;;;10.50;99.90;;;;;;4998199;28;20048;-81
2023/11/24 08:09:25;;;;;;;;;;;10.50;99.90;;;;;;5000747;28;19913;-75
2023/11/24 08:11:51;;;;;;;;;;;10.50;99.90;;;;;;5005029;28;19920;-81
2023/11/24 08:14:23;;;;;;;;;;;10.50;99.90;;;;;;5004192;28;19922;-81
2023/11/24 08:16:48;;;;;;;;;;;10.60;99.90;;;;;;5007124;28;19979;-81
2023/11/24 08:19:15;;;;;;;;;;;10.70;99.90;;;;;;4999581;28;20379;-81
2023/11/24 08:21:41;;;;;;;;;;;10.70;99.90;;;;;;4992970;28;19922;-75
2023/11/24 08:24:07;;;;;;;;;;;10.70;99.90;;;;;;4992830;28;19945;-75
2023/11/24 08:26:32;;;;;;;;;;;10.60;99.90;;;;;;4998725;28;19979;-76
2023/11/24 08:28:58;;;;;;;;;;;10.70;99.90;;;;;;5000417;28;20332;-81
2023/11/24 08:31:24;;;;;;;;;;;10.70;99.90;;;;;;5000176;28;20328;-80
2023/11/24 08:33:50;;;;;;;;;;;10.70;99.90;;;;;;5003312;28;20024;-80
2023/11/24 08:36:16;;;;;;;;;;;10.70;99.90;;;;;;4992933;28;20413;-75
2023/11/24 08:38:41;;;;;;;;;;;10.70;99.90;;;;;;4998237;28;20416;-75
2023/11/24 08:41:13;;;;;;;;;;;10.80;99.90;;;;;;4992069;28;19924;-74
2023/11/24 08:43:39;;;;;;;;;;;10.90;99.90;;;;;;5013125;28;19921;-80
2023/11/24 08:46:07;;;;;;;;;;;10.80;99.90;;;;;;4997316;28;19926;-80
2023/11/24 08:48:33;;;;;;;;;;;10.90;99.90;;;;;;4999178;28;20020;-74
2023/11/24 08:50:59;;;;;;;;;;;10.80;99.90;;;;;;5004874;28;19928;-81
2023/11/24 08:53:25;;;;;;;;;;;10.90;99.90;;;;;;5006165;28;20004;-75
2023/11/24 08:55:51;;;;;;;;;;;10.90;99.90;;;;;;5000576;28;20012;-80
2023/11/24 08:58:16;;;;;;;;;;;11.00;99.90;;;;;;5004632;28;19937;-80
2023/11/24 09:00:42;;;;;;;;;;;11.10;99.90;;;;;;4992163;28;20382;-76
2023/11/24 09:03:07;;;;;;;;;;;11.20;99.90;;;;;;4992715;28;20381;-75
2023/11/24 09:05:34;;;;;;;;;;;11.20;99.90;;;;;;4991809;28;19922;-80
2023/11/24 09:08:00;;;;;;;;;;;11.20;99.90;;;;;;4999283;28;20044;-80
2023/11/24 09:10:28;;;;;;;;;;;11.30;99.90;;;;;;5001215;28;20416;-80
2023/11/24 09:12:53;;;;;;;;;;;11.40;99.90;;;;;;4997207;28;19940;-74
2023/11/24 09:15:19;;;;;;;;;;;11.40;99.90;;;;;;4995032;28;20384;-80
2023/11/24 09:17:44;;;;;;;;;;;11.30;99.90;;;;;;5005508;28;19918;-75
2023/11/24 09:20:16;;;;;;;;;;;11.30;99.90;;;;;;5001643;28;20381;-80
2023/11/24 09:22:41;;;;;;;;;;;11.40;99.90;;;;;;5003299;28;20419;-80
2023/11/24 09:25:08;;;;;;;;;;;11.40;99.90;;;;;;4999369;28;20023;-80
2023/11/24 09:27:34;;;;;;;;;;;11.50;99.90;;;;;;5003404;28;20446;-74
2023/11/24 09:30:01;;;;;;;;;;;11.70;99.90;;;;;;4994848;28;19914;-80
2023/11/24 09:32:27;;;;;;;;;;;11.70;99.90;;;;;;4993474;28;20021;-80
2023/11/24 09:34:52;;;;;;;;;;;11.70;99.90;;;;;;5000808;28;20012;-80
2023/11/24 09:37:18;;;;;;;;;;;11.60;99.90;;;;;;5002318;28;19994;-80
2023/11/24 09:39:44;;;;;;;;;;;11.60;99.90;;;;;;4998261;28;20307;-75
2023/11/24 09:42:12;;;;;;;;;;;11.70;99.90;;;;;;5010605;28;20263;-74
2023/11/24 09:44:40;;;;;;;;;;;11.70;99.90;;;;;;5008836;28;20020;-74
2023/11/24 09:47:06;;;;;;;;;;;11.80;99.90;;;;;;5011375;28;19980;-74
2023/11/24 09:49:32;;;;;;;;;;;11.80;99.90;;;;;;5004617;28;19945;-80
2023/11/24 09:51:59;;;;;;;;;;;11.90;99.90;;;;;;4994870;28;19914;-80
2023/11/24 09:54:26;;;;;;;;;;;11.90;99.90;;;;;;5002823;28;20020;-74
2023/11/24 09:56:52;;;;;;;;;;;12.00;99.90;;;;;;4998254;28;20004;-80
2023/11/24 09:59:18;;;;;;;;;;;12.10;99.90;;;;;;4998157;28;20409;-75
2023/11/24 10:01:47;;;;;;;;;;;12.00;99.90;;;;;;5001486;28;19916;-80
2023/11/24 10:04:12;;;;;;;;;;;12.20;99.90;;;;;;5000880;28;19965;-80
2023/11/24 10:06:38;;;;;;;;;;;12.30;99.90;;;;;;5001150;28;20451;-74
2023/11/24 10:09:10;;;;;;;;;;;12.30;99.90;;;;;;5009500;28;19928;-74
2023/11/24 10:11:38;;;;;;;;;;;12.50;99.90;;;;;;4993787;28;19918;-75
2023/11/24 10:14:06;;;;;;;;;;;12.70;99.90;;;;;;4999145;28;19949;-79
2023/11/24 10:16:31;;;;;;;;;;;12.80;99.90;;;;;;5017675;28;19910;-81
2023/11/24 10:18:58;;;;;;;;;;;12.90;99.90;;;;;;5005300;28;20362;-80
2023/11/24 10:21:25;;;;;;;;;;;12.80;99.90;;;;;;5002691;28;19937;-75
2023/11/24 10:23:51;;;;;;;;;;;12.80;99.90;;;;;;5004326;28;19920;-76
2023/11/24 10:26:17;;;;;;;;;;;12.90;99.90;;;;;;5003539;28;19926;-74
2023/11/24 10:28:44;;;;;;;;;;;12.90;99.90;;;;;;5011529;28;20385;-80
2023/11/24 10:31:12;;;;;;;;;;;12.90;99.90;;;;;;4999429;28;19929;-74
2023/11/24 10:33:38;;;;;;;;;;;13.00;99.90;;;;;;4999290;28;19922;-74
2023/11/24 10:36:07;;;;;;;;;;;13.00;99.90;;;;;;4996002;28;19914;-76
2023/11/24 10:38:33;;;;;;;;;;;13.20;99.90;;;;;;4996627;28;19966;-77
2023/11/24 10:40:59;;;;;;;;;;;13.20;99.90;;;;;;4996106;28;19918;-81
2023/11/24 10:43:26;;;;;;;;;;;13.20;99.90;;;;;;5005890;28;19926;-83
2023/11/24 10:45:53;;;;;;;;;;;13.20;99.90;;;;;;5001778;28;19917;-77
2023/11/24 10:48:20;;;;;;;;;;;13.00;99.90;;;;;;4996885;28;19960;-81
2023/11/24 10:51:12;;;;;;;;;;;12.90;99.90;;;;;;4992441;28;19968;-75
2023/11/24 10:53:48;;;;;;;;;;;13.10;99.90;;;;;;4999227;28;19992;-75
2023/11/24 10:56:15;;;;;;;;;;;13.10;99.90;;;;;;5006656;28;19933;-75
2023/11/24 10:58:41;;;;;;;;;;;13.20;99.90;;;;;;4997633;28;19917;-75
2023/11/24 11:01:07;;;;;;;;;;;13.30;99.90;;;;;;4999489;28;20011;-75
2023/11/24 11:03:33;;;;;;;;;;;13.60;99.90;;;;;;4998169;28;20089;-75
2023/11/24 11:06:08;;;;;;;;;;;13.40;99.90;;;;;;4998928;28;20019;-81
2023/11/24 11:08:36;;;;;;;;;;;13.60;99.90;;;;;;5004129;28;19920;-83
2023/11/24 11:11:05;;;;;;;;;;;13.60;99.90;;;;;;5004389;28;19940;-83
2023/11/24 11:13:35;;;;;;;;;;;13.50;99.90;;;;;;5003377;28;19918;-75
2023/11/24 11:16:06;;;;;;;;;;;13.40;99.90;;;;;;5012937;28;19944;-75
2023/11/24 11:18:33;;;;;;;;;;;13.50;99.90;;;;;;5006286;28;20391;-75
2023/11/24 11:21:08;;;;;;;;;;;13.70;99.90;;;;;;5004893;28;19943;-74
2023/11/24 11:23:36;;;;;;;;;;;13.60;99.90;;;;;;4997773;28;19914;-75
2023/11/24 11:26:02;;;;;;;;;;;13.60;99.90;;;;;;4999497;28;19968;-74
2023/11/24 11:28:42;;;;;;;;;;;13.70;99.90;;;;;;5008978;28;19917;-74
2023/11/24 11:31:20;;;;;;;;;;;13.50;99.90;;;;;;5008341;28;20409;-82
2023/11/24 11:33:46;;;;;;;;;;;13.60;99.90;;;;;;5003763;28;20292;-82
2023/11/24 11:36:11;;;;;;;;;;;13.50;99.90;;;;;;5002897;28;19921;-82
2023/11/24 11:38:43;;;;;;;;;;;13.40;99.90;;;;;;5002329;28;19914;-74
2023/11/24 11:41:09;;;;;;;;;;;13.50;99.90;;;;;;5011399;28;19984;-82
2023/11/24 11:43:53;;;;;;;;;;;13.40;99.90;;;;;;5009391;28;19996;-75
2023/11/24 11:46:19;;;;;;;;;;;13.50;99.90;;;;;;4998979;28;19972;-82
2023/11/24 11:48:46;;;;;;;;;;;13.40;99.90;;;;;;4996841;28;20393;-82
2023/11/24 11:51:15;;;;;;;;;;;13.40;99.90;;;;;;5003792;28;19996;-74
2023/11/24 11:53:41;;;;;;;;;;;13.30;99.90;;;;;;5008429;28;20016;-82
2023/11/24 11:56:09;;;;;;;;;;;13.30;99.90;;;;;;5009522;28;20004;-74
2023/11/24 11:58:34;;;;;;;;;;;13.80;99.90;;;;;;5002043;28;19960;-82
2023/11/24 12:01:00;;;;;;;;;;;14.70;99.90;;;;;;5007676;28;19956;-82
2023/11/24 12:03:27;;;;;;;;;;;15.10;99.90;;;;;;5009506;28;19909;-82
2023/11/24 12:05:53;;;;;;;;;;;15.30;99.90;;;;;;5011454;28;20072;-74
2023/11/24 12:08:21;;;;;;;;;;;15.10;99.90;;;;;;5006770;28;20003;-82
2023/11/24 12:10:47;;;;;;;;;;;14.80;99.90;;;;;;5007614;28;19920;-82
2023/11/24 12:13:12;;;;;;;;;;;14.40;99.90;;;;;;5006069;28;19909;-83
2023/11/24 12:15:38;;;;;;;;;;;14.40;99.90;;;;;;4997599;28;20304;-74
2023/11/24 12:18:06;;;;;;;;;;;14.20;99.90;;;;;;5010299;28;20288;-74
2023/11/24 12:20:34;;;;;;;;;;;14.00;99.90;;;;;;5001645;28;20281;-75
2023/11/24 12:23:00;;;;;;;;;;;13.90;99.90;;;;;;5001823;28;20385;-82
2023/11/24 12:25:27;;;;;;;;;;;13.80;99.90;;;;;;4998664;28;20309;-82
2023/11/24 12:27:56;;;;;;;;;;;13.80;99.90;;;;;;4997254;28;19910;-82
2023/11/24 12:30:22;;;;;;;;;;;13.80;99.90;;;;;;5002815;28;20012;-74
2023/11/24 12:32:48;;;;;;;;;;;13.80;99.90;;;;;;5005818;28;19995;-81
2023/11/24 12:35:14;;;;;;;;;;;13.80;99.90;;;;;;4994004;28;20396;-74
2023/11/24 12:37:40;;;;;;;;;;;14.00;99.90;;;;;;5008182;28;19921;-82
2023/11/24 12:40:09;;;;;;;;;;;14.10;99.90;;;;;;5000541;28;19914;-82
2023/11/24 12:42:34;;;;;;;;;;;14.10;99.90;;;;;;5000290;28;19916;-74
2023/11/24 12:45:00;;;;;;;;;;;14.20;99.90;;;;;;5005784;28;19917;-74
2023/11/24 12:47:25;;;;;;;;;;;14.20;99.90;;;;;;5009603;28;19909;-74
2023/11/24 12:50:01;;;;;;;;;;;14.10;99.90;;;;;;5012854;28;19952;-82
2023/11/24 12:52:30;;;;;;;;;;;14.20;99.90;;;;;;4998224;28;19956;-82
2023/11/24 12:54:55;;;;;;;;;;;14.40;99.90;;;;;;4994867;28;19914;-74
2023/11/24 12:57:25;;;;;;;;;;;14.70;99.90;;;;;;4997685;28;19917;-81
2023/11/24 12:59:51;;;;;;;;;;;14.90;99.90;;;;;;5007123;28;19918;-74
2023/11/24 13:02:22;;;;;;;;;;;14.80;99.90;;;;;;4997253;28;19921;-82
2023/11/24 13:04:48;;;;;;;;;;;14.60;99.90;;;;;;4999172;28;20017;-82
2023/11/24 13:07:17;;;;;;;;;;;14.60;99.90;;;;;;5003752;28;19917;-74
2023/11/24 13:09:45;;;;;;;;;;;14.60;99.90;;;;;;5004548;28;20016;-74
2023/11/24 13:12:12;;;;;;;;;;;14.50;99.90;;;;;;5000102;28;19957;-74
2023/11/24 13:14:37;;;;;;;;;;;14.40;99.90;;;;;;5005822;28;19987;-74
2023/11/24 13:17:03;;;;;;;;;;;14.30;99.90;;;;;;4999784;28;19961;-82
2023/11/24 13:19:31;;;;;;;;;;;14.30;99.90;;;;;;5005989;28;20004;-82
2023/11/24 13:21:57;;;;;;;;;;;14.30;99.90;;;;;;5008552;28;19922;-82
2023/11/24 13:24:24;;;;;;;;;;;14.10;99.90;;;;;;5009434;28;20008;-74
2023/11/24 13:26:50;;;;;;;;;;;14.10;99.90;;;;;;5009885;28;20051;-74
2023/11/24 13:29:15;;;;;;;;;;;14.40;99.90;;;;;;5011302;28;19914;-82
2023/11/24 13:31:47;;;;;;;;;;;14.50;99.90;;;;;;4997383;28;19921;-82
2023/11/24 13:34:14;;;;;;;;;;;14.60;99.90;;;;;;5002834;28;19914;-82
2023/11/24 13:36:41;;;;;;;;;;;14.50;99.90;;;;;;5001857;28;19921;-75
2023/11/24 13:39:13;;;;;;;;;;;14.60;99.90;;;;;;4999263;28;19914;-74
2023/11/24 13:41:42;;;;;;;;;;;14.50;99.90;;;;;;5006196;28;19924;-78
2023/11/24 13:44:11;;;;;;;;;;;14.30;99.90;;;;;;4991687;28;19918;-76
2023/11/24 13:46:40;;;;;;;;;;;14.10;99.90;;;;;;4999728;28;19918;-74
2023/11/24 13:49:11;;;;;;;;;;;13.90;99.90;;;;;;4999645;28;20381;-73
2023/11/24 13:51:36;;;;;;;;;;;13.80;99.90;;;;;;5008589;28;19918;-76
2023/11/24 13:54:05;;;;;;;;;;;13.90;99.90;;;;;;5000829;28;19967;-75
2023/11/24 13:56:31;;;;;;;;;;;13.70;99.90;;;;;;5005050;28;20000;-74
2023/11/24 13:58:56;;;;;;;;;;;13.60;99.90;;;;;;5010666;28;20307;-75
2023/11/24 14:01:22;;;;;;;;;;;13.40;99.90;;;;;;4994836;28;19913;-75
2023/11/24 14:03:47;;;;;;;;;;;13.50;99.90;;;;;;5008866;28;19920;-75
2023/11/24 14:06:14;;;;;;;;;;;13.50;99.90;;;;;;5013372;28;19921;-75
2023/11/24 14:08:39;;;;;;;;;;;13.60;99.90;;;;;;5003993;28;19914;-75
2023/11/24 14:11:07;;;;;;;;;;;13.50;99.90;;;;;;4999282;28;20376;-74